createdAt,value
2019-01-05T00:08:09.174Z,31.7
2019-01-05T00:10:05.865Z,31.7
2019-01-05T00:14:07.090Z,32.1
2019-01-05T00:16:05.848Z,32.2
2019-01-05T00:18:08.301Z,32.4
2019-01-05T00:20:13.570Z,32.5
2019-01-05T00:28:05.581Z,33
2019-01-05T00:30:05.300Z,33.1
2019-01-05T00:32:06.012Z,33.2
2019-01-05T00:34:05.721Z,33.3
2019-01-05T00:36:05.401Z,33.5
2019-01-05T00:38:05.053Z,33.6
2019-01-05T00:40:05.736Z,33.5
2019-01-05T00:42:06.026Z,33.4
2019-01-05T00:44:05.829Z,33.4
2019-01-05T00:46:05.512Z,33.4
2019-01-05T00:48:07.703Z,33.5
2019-01-05T00:50:05.951Z,33.5
2019-01-05T00:52:05.250Z,33.4
2019-01-05T00:57:12.148Z,32.2
2019-01-05T01:00:33.155Z,32.1
2019-01-05T01:03:09.021Z,32
2019-01-05T01:08:37.313Z,31.8
2019-01-05T01:10:55.791Z,31.3
2019-01-05T01:16:08.451Z,31.2
2019-01-05T01:18:05.822Z,31
2019-01-05T01:20:06.785Z,31
2019-01-05T01:22:08.099Z,30.8
2019-01-05T01:24:04.989Z,31
2019-01-05T01:34:15.434Z,30.7
2019-01-05T01:36:05.707Z,30.7
2019-01-05T01:38:05.733Z,30.8
2019-01-05T01:40:05.535Z,30.7
2019-01-05T01:42:08.539Z,30.7
2019-01-05T01:44:05.259Z,30.5
2019-01-05T01:46:08.970Z,30.4
2019-01-05T01:48:06.185Z,30.4
2019-01-05T01:50:05.972Z,30.5
2019-01-05T01:52:05.680Z,30.5
2019-01-05T01:54:07.859Z,30.5
2019-01-05T01:56:05.572Z,30.5
2019-01-05T01:58:05.775Z,30.5
2019-01-05T02:00:05.522Z,30.6
2019-01-05T02:02:05.372Z,30.2
2019-01-05T02:04:10.414Z,30.4
2019-01-05T02:12:05.940Z,30
2019-01-05T02:15:11.506Z,30.1
2019-01-05T02:16:08.270Z,30.4
2019-01-05T02:20:05.876Z,30.2
2019-01-05T02:22:15.681Z,30.1
2019-01-05T02:28:05.438Z,30.1
2019-01-05T02:30:05.200Z,30.2
2019-01-05T02:36:08.513Z,30
2019-01-05T02:40:06.430Z,30
2019-01-05T02:42:05.115Z,30
2019-01-05T02:50:05.908Z,30.1
2019-01-05T02:52:05.647Z,30.1
2019-01-05T02:54:05.341Z,30
2019-01-05T02:56:05.058Z,29.9
2019-01-05T02:58:05.696Z,29.9
2019-01-05T03:00:05.971Z,30
2019-01-05T03:02:05.663Z,30
2019-01-05T03:04:05.734Z,30
2019-01-05T03:14:05.373Z,29.9
2019-01-05T03:19:24.130Z,30
2019-01-05T03:23:08.473Z,30
2019-01-05T03:24:05.213Z,29.8
2019-01-05T03:28:05.066Z,29.9
2019-01-05T03:30:05.269Z,29.8
2019-01-05T03:32:05.673Z,29.8
2019-01-05T03:38:05.524Z,29.9
2019-01-05T03:44:05.356Z,29.9
2019-01-05T03:50:05.063Z,29.9
2019-01-05T03:52:14.509Z,29.9
2019-01-05T03:54:05.219Z,29.9
2019-01-05T03:56:05.963Z,29.8
2019-01-05T04:00:05.737Z,29.8
2019-01-05T04:02:05.679Z,29.9
2019-01-05T04:06:05.920Z,29.8
2019-01-05T04:08:10.700Z,29.8
2019-01-05T04:10:27.457Z,29.8
2019-01-05T04:12:05.379Z,29.7
2019-01-05T04:14:07.958Z,29.7
2019-01-05T04:18:05.493Z,29.8
2019-01-05T04:20:05.230Z,29.6
2019-01-05T04:22:05.965Z,29.6
2019-01-05T04:24:06.813Z,29.7
2019-01-05T04:26:05.917Z,29.6
2019-01-05T04:28:37.015Z,29.6
2019-01-05T04:30:08.598Z,29.7
2019-01-05T04:42:05.927Z,29.6
2019-01-05T04:44:07.748Z,29.7
2019-01-05T04:46:07.573Z,29.8
2019-01-05T04:48:07.780Z,29.8
2019-01-05T04:50:15.458Z,29.8
2019-01-05T04:52:05.293Z,29.8
2019-01-05T04:58:05.148Z,29.7
2019-01-05T05:00:10.910Z,29.9
2019-01-05T05:03:08.782Z,29.9
2019-01-05T05:04:05.793Z,29.8
2019-01-05T05:06:05.544Z,29.7
2019-01-05T05:12:05.917Z,29.8
2019-01-05T05:14:05.642Z,29.8
2019-01-05T05:20:07.597Z,29.8
2019-01-05T05:22:05.329Z,29.8
2019-01-05T05:26:05.590Z,29.8
2019-01-05T05:28:10.364Z,29.8
2019-01-05T05:32:05.569Z,29.8
2019-01-05T05:34:08.668Z,29.7
2019-01-05T05:36:05.162Z,29.8
2019-01-05T05:38:08.404Z,29.8
2019-01-05T05:40:05.087Z,29.6
2019-01-05T05:42:05.799Z,29.7
2019-01-05T05:44:08.021Z,29.7
2019-01-05T05:46:05.794Z,29.7
2019-01-05T05:54:05.119Z,29.6
2019-01-05T05:56:05.828Z,29.5
2019-01-05T05:58:08.043Z,29.6
2019-01-05T06:04:06.050Z,29.6
2019-01-05T06:06:05.929Z,29.7
2019-01-05T06:08:05.683Z,29.8
2019-01-05T06:10:05.498Z,29.6
2019-01-05T06:12:10.269Z,29.6
2019-01-05T06:18:05.352Z,29.7
2019-01-05T06:22:05.664Z,29.7
2019-01-05T06:24:05.485Z,29.7
2019-01-05T06:26:05.800Z,29.7
2019-01-05T06:28:05.462Z,29.8
2019-01-05T06:30:05.156Z,29.7
2019-01-05T06:32:05.898Z,29.6
2019-01-05T06:34:05.606Z,29.6
2019-01-05T06:36:05.359Z,29.7
2019-01-05T06:38:05.058Z,29.7
2019-01-05T06:42:05.401Z,29.7
2019-01-05T06:44:05.149Z,29.6
2019-01-05T06:46:05.845Z,29.6
2019-01-05T06:48:05.497Z,29.6
2019-01-05T06:50:05.756Z,29.6
2019-01-05T06:52:15.741Z,29.6
2019-01-05T06:56:07.538Z,29.6
2019-01-05T06:58:05.276Z,29.6
2019-01-05T07:00:06.000Z,29.6
2019-01-05T07:02:05.664Z,29.6
2019-01-05T07:08:05.634Z,29.6
2019-01-05T07:10:12.937Z,29.6
2019-01-05T07:12:05.627Z,29.6
2019-01-05T07:14:05.345Z,29.6
2019-01-05T07:16:05.096Z,29.6
2019-01-05T07:18:06.001Z,29.6
2019-01-05T07:22:08.393Z,29.7
2019-01-05T07:26:07.633Z,29.6
2019-01-05T07:28:05.313Z,29.6
2019-01-05T07:30:08.042Z,29.5
2019-01-05T07:32:05.926Z,29.7
2019-01-05T07:34:05.628Z,29.6
2019-01-05T07:36:05.324Z,29.6
2019-01-05T07:38:05.560Z,29.8
2019-01-05T07:40:05.440Z,29.7
2019-01-05T07:42:05.138Z,29.7
2019-01-05T07:46:28.092Z,29.7
2019-01-05T07:48:05.061Z,29.7
2019-01-05T07:50:05.327Z,29.7
2019-01-05T07:52:05.531Z,29.8
2019-01-05T08:00:05.852Z,29.7
2019-01-05T08:02:05.648Z,29.7
2019-01-05T08:04:08.500Z,29.7
2019-01-05T08:06:07.790Z,29.7
2019-01-05T08:08:05.518Z,29.7
2019-01-05T08:10:05.854Z,29.5
2019-01-05T08:12:05.775Z,29.7
2019-01-05T08:14:05.424Z,29.7
2019-01-05T08:16:05.205Z,29.5
2019-01-05T08:18:05.194Z,29.7
2019-01-05T08:20:05.879Z,29.8
2019-01-05T08:22:05.581Z,30
2019-01-05T08:24:05.279Z,30
2019-01-05T08:26:10.209Z,30
2019-01-05T08:28:05.911Z,30
2019-01-05T08:30:05.640Z,30
2019-01-05T08:32:05.394Z,30
2019-01-05T08:34:10.120Z,30
2019-01-05T08:36:05.804Z,30
2019-01-05T08:38:05.556Z,29.9
2019-01-05T08:40:05.278Z,30
2019-01-05T08:42:13.557Z,29.9
2019-01-05T08:44:05.233Z,30.1
2019-01-05T08:46:10.977Z,30
2019-01-05T08:48:05.655Z,30
2019-01-05T08:50:05.360Z,30
2019-01-05T08:52:10.627Z,30
2019-01-05T08:54:05.303Z,30
2019-01-05T08:58:05.092Z,30
2019-01-05T09:00:05.824Z,30
2019-01-05T09:02:13.189Z,30
2019-01-05T09:04:05.958Z,30.1
2019-01-05T09:06:07.696Z,30
2019-01-05T09:08:05.356Z,30
2019-01-05T09:12:05.160Z,30
2019-01-05T09:14:05.904Z,30.2
2019-01-05T09:16:05.133Z,30.2
2019-01-05T09:18:17.677Z,30.1
2019-01-05T09:20:05.399Z,30.1
2019-01-05T09:22:05.116Z,30
2019-01-05T09:24:05.851Z,30
2019-01-05T09:26:05.565Z,30
2019-01-05T09:30:05.997Z,29.7
2019-01-05T09:32:05.731Z,29.9
2019-01-05T09:34:05.413Z,30.2
2019-01-05T09:36:07.651Z,30
2019-01-05T09:38:07.897Z,29.9
2019-01-05T09:40:05.555Z,29.9
2019-01-05T09:42:07.830Z,30
2019-01-05T09:44:10.590Z,30
2019-01-05T09:46:05.252Z,30
2019-01-05T09:48:05.908Z,29.8
2019-01-05T09:50:05.569Z,29.9
2019-01-05T09:52:10.358Z,30
2019-01-05T09:54:05.066Z,30
2019-01-05T09:56:05.765Z,29.9
2019-01-05T09:58:05.461Z,29.9
2019-01-05T10:00:05.120Z,29.9
2019-01-05T10:02:08.335Z,29.9
2019-01-05T10:04:05.068Z,29.9
2019-01-05T10:06:05.772Z,30.1
2019-01-05T10:08:10.722Z,30.2
2019-01-05T10:10:05.448Z,30.2
2019-01-05T10:12:05.726Z,30.1
2019-01-05T10:14:05.464Z,30.4
2019-01-05T10:16:05.202Z,30.2
2019-01-05T10:18:05.137Z,30.4
2019-01-05T10:20:10.902Z,30.2
2019-01-05T10:22:05.545Z,30.2
2019-01-05T10:24:05.759Z,30.3
2019-01-05T10:26:05.426Z,30.3
2019-01-05T10:28:05.117Z,30.4
2019-01-05T10:30:05.804Z,30.5
2019-01-05T10:32:05.570Z,30.3
2019-01-05T10:34:05.226Z,30.6
2019-01-05T10:36:05.418Z,30.7
2019-01-05T10:38:05.144Z,30.7
2019-01-05T10:40:08.373Z,30.8
2019-01-05T10:42:05.051Z,30.8
2019-01-05T10:44:05.729Z,30.9
2019-01-05T10:46:10.963Z,31.1
2019-01-05T10:48:05.682Z,31.2
2019-01-05T10:50:05.650Z,31.2
2019-01-05T10:52:06.689Z,31.4
2019-01-05T10:54:13.752Z,31
2019-01-05T10:56:05.129Z,31
2019-01-05T10:58:05.844Z,31.3
2019-01-05T11:00:05.293Z,31.1
2019-01-05T11:02:05.977Z,31.1
2019-01-05T11:04:05.696Z,31.2
2019-01-05T11:06:05.638Z,31.2
2019-01-05T11:08:05.334Z,31
2019-01-05T11:10:05.035Z,31.3
2019-01-05T11:12:05.744Z,31.1
2019-01-05T11:14:07.945Z,31.4
2019-01-05T11:16:05.615Z,31.4
2019-01-05T11:18:05.077Z,31.3
2019-01-05T11:20:05.835Z,31.5
2019-01-05T11:22:10.148Z,31.2
2019-01-05T11:24:05.892Z,31.2
2019-01-05T11:26:05.624Z,31.3
2019-01-05T11:28:05.381Z,31.3
2019-01-05T11:30:05.048Z,31.4
2019-01-05T11:32:05.230Z,31.2
2019-01-05T11:34:05.921Z,31.3
2019-01-05T11:36:05.588Z,31.3
2019-01-05T11:38:05.255Z,31.2
2019-01-05T11:40:05.968Z,31.2
2019-01-05T11:42:05.658Z,31.2
2019-01-05T11:44:07.962Z,31
2019-01-05T11:46:10.744Z,31
2019-01-05T11:48:05.534Z,31
2019-01-05T11:50:10.293Z,30.9
2019-01-05T11:52:05.995Z,30.9
2019-01-05T11:54:05.243Z,30.9
2019-01-05T11:56:05.933Z,30.9
2019-01-05T11:58:05.514Z,30.9
2019-01-05T12:00:05.246Z,30.7
2019-01-05T12:02:08.005Z,30.9
2019-01-05T12:04:05.756Z,30.9
2019-01-05T12:06:05.110Z,30.8
2019-01-05T12:08:05.797Z,30.8
2019-01-05T12:10:05.548Z,30.7
2019-01-05T12:12:05.250Z,30.7
2019-01-05T12:14:06.023Z,30.6
2019-01-05T12:16:05.722Z,30.8
2019-01-05T12:18:08.112Z,30.5
2019-01-05T12:20:05.783Z,30.8
2019-01-05T12:22:05.439Z,30.6
2019-01-05T12:24:13.269Z,30.5
2019-01-05T12:26:05.993Z,30.5
2019-01-05T12:28:08.194Z,30.6
2019-01-05T12:30:06.023Z,30.6
2019-01-05T12:32:05.718Z,30.5
2019-01-05T12:34:05.429Z,30.5
2019-01-05T12:36:05.438Z,30.5
2019-01-05T12:38:05.180Z,30.5
2019-01-05T12:40:05.886Z,30.5
2019-01-05T12:42:08.109Z,30.5
2019-01-05T12:44:05.789Z,30.2
2019-01-05T12:46:05.964Z,30.4
2019-01-05T12:48:05.738Z,30.3
2019-01-05T12:50:06.018Z,30.2
2019-01-05T12:52:06.777Z,30.2
2019-01-05T12:54:08.063Z,30.2
2019-01-05T12:56:05.856Z,30.2
2019-01-05T12:58:05.649Z,30.3
2019-01-05T13:00:07.941Z,30.2
2019-01-05T13:02:15.421Z,30
2019-01-05T13:04:05.155Z,30.2
2019-01-05T13:06:05.943Z,30.2
2019-01-05T13:08:05.992Z,30.2
2019-01-05T13:10:05.675Z,30.2
2019-01-05T13:12:11.157Z,30.1
2019-01-05T13:14:05.927Z,30.1
2019-01-05T13:16:05.138Z,30.1
2019-01-05T13:18:07.632Z,30.1
2019-01-05T13:20:07.924Z,30.1
2019-01-05T13:22:08.160Z,30
2019-01-05T13:24:05.068Z,30.1
2019-01-05T13:26:15.964Z,30
2019-01-05T13:28:05.737Z,30
2019-01-05T13:30:05.686Z,29.9
2019-01-05T13:32:05.587Z,30.1
2019-01-05T13:34:07.956Z,30
2019-01-05T13:36:06.035Z,30
2019-01-05T13:38:05.810Z,29.9
2019-01-05T13:40:08.189Z,30
2019-01-05T13:42:05.414Z,30
2019-01-05T13:44:05.131Z,30
2019-01-05T13:46:05.157Z,29.9
2019-01-05T13:48:05.886Z,30
2019-01-05T13:50:05.715Z,29.9
2019-01-05T13:52:05.731Z,30
2019-01-05T13:54:08.535Z,29.9
2019-01-05T13:56:08.386Z,30
2019-01-05T13:58:05.166Z,30
2019-01-05T14:00:06.045Z,29.9
2019-01-05T14:02:11.024Z,29.9
2019-01-05T14:04:08.421Z,29.9
2019-01-05T14:06:05.330Z,29.9
2019-01-05T14:08:10.227Z,29.9
2019-01-05T14:10:05.936Z,29.9
2019-01-05T14:12:05.780Z,29.9
2019-01-05T14:14:09.388Z,29.9
2019-01-05T14:16:12.775Z,29.9
2019-01-05T14:18:05.649Z,29.7
2019-01-05T14:20:12.218Z,29.8
2019-01-05T14:22:06.004Z,29.8
2019-01-05T14:24:05.664Z,29.8
2019-01-05T14:26:07.961Z,29.8
2019-01-05T14:28:05.590Z,29.8
2019-01-05T14:30:05.360Z,29.8
2019-01-05T14:32:05.204Z,29.7
2019-01-05T14:34:05.039Z,29.8
2019-01-05T14:36:10.893Z,29.8
2019-01-05T14:38:05.619Z,29.8
2019-01-05T14:40:05.779Z,29.8
2019-01-05T14:42:05.267Z,29.8
2019-01-05T14:44:05.065Z,29.7
2019-01-05T14:46:05.119Z,29.7
2019-01-05T14:48:05.541Z,29.8
2019-01-05T14:50:05.270Z,29.8
2019-01-05T14:52:06.337Z,29.8
2019-01-05T14:54:05.739Z,29.8
2019-01-05T14:56:13.074Z,29.7
2019-01-05T14:58:05.193Z,29.7
2019-01-05T15:00:06.065Z,29.7
2019-01-05T15:02:05.434Z,29.7
2019-01-05T15:04:10.317Z,29.7
2019-01-05T15:06:06.025Z,29.7
2019-01-05T15:08:08.491Z,29.7
2019-01-05T15:10:05.340Z,29.7
2019-01-05T15:12:07.661Z,29.7
2019-01-05T15:14:05.464Z,29.7
2019-01-05T15:16:10.436Z,29.7
2019-01-05T15:18:05.093Z,29.7
2019-01-05T15:20:10.997Z,29.7
2019-01-05T15:22:05.709Z,29.7
2019-01-05T15:24:05.449Z,29.6
2019-01-05T15:26:20.398Z,29.7
2019-01-05T15:28:05.711Z,29.7
2019-01-05T15:30:08.015Z,29.6
2019-01-05T15:32:05.745Z,29.7
2019-01-05T15:34:05.515Z,29.6
2019-01-05T15:36:05.430Z,29.7
2019-01-05T15:38:05.205Z,29.6
2019-01-05T15:40:06.079Z,29.7
2019-01-05T15:42:05.862Z,29.6
2019-01-05T15:44:08.049Z,29.5
2019-01-05T15:46:05.345Z,29.5
2019-01-05T15:48:05.070Z,29.6
2019-01-05T15:50:05.780Z,29.6
2019-01-05T15:52:05.480Z,29.6
2019-01-05T15:54:07.692Z,29.5
2019-01-05T15:56:05.362Z,29.5
2019-01-05T15:58:05.029Z,29.5
2019-01-05T16:00:05.773Z,29.7
2019-01-05T16:02:05.552Z,29.5
2019-01-05T16:04:05.266Z,29.5
2019-01-05T16:06:13.599Z,29.7
2019-01-05T16:08:07.778Z,29.5
2019-01-05T16:10:08.493Z,29.5
2019-01-05T16:12:05.159Z,29.5
2019-01-05T16:14:05.850Z,29.7
2019-01-05T16:16:05.605Z,29.5
2019-01-05T16:18:05.067Z,29.6
2019-01-05T16:20:05.763Z,29.4
2019-01-05T16:22:05.402Z,29.5
2019-01-05T16:24:08.112Z,29.5
2019-01-05T16:26:05.756Z,29.5
2019-01-05T16:28:08.044Z,29.5
2019-01-05T16:30:08.290Z,29.5
2019-01-05T16:32:05.992Z,29.5
2019-01-05T16:34:05.764Z,29.5
2019-01-05T16:36:08.015Z,29.5
2019-01-05T16:38:10.876Z,29.5
2019-01-05T16:40:05.124Z,29.5
2019-01-05T16:42:05.790Z,29.5
2019-01-05T16:44:05.952Z,29.5
2019-01-05T16:46:05.733Z,29.4
2019-01-05T16:48:05.406Z,29.4
2019-01-05T16:50:05.146Z,29.5
2019-01-05T16:52:05.877Z,29.5
2019-01-05T16:54:08.117Z,29.5
2019-01-05T16:56:05.890Z,29.5
2019-01-05T16:58:05.639Z,29.4
2019-01-05T17:00:05.319Z,29.6
2019-01-05T17:02:05.692Z,29.4
2019-01-05T17:04:05.373Z,29.4
2019-01-05T17:06:05.682Z,29.4
2019-01-05T17:08:05.320Z,29.4
2019-01-05T17:10:05.007Z,29.5
2019-01-05T17:12:07.796Z,29.5
2019-01-05T17:14:05.477Z,29.5
2019-01-05T17:16:05.246Z,29.5
2019-01-05T17:18:05.202Z,29.4
2019-01-05T17:20:05.893Z,29.4
2019-01-05T17:22:05.589Z,29.5
2019-01-05T17:24:05.371Z,29.4
2019-01-05T17:26:05.747Z,29.4
2019-01-05T17:28:05.420Z,29.4
2019-01-05T17:30:05.128Z,29.4
2019-01-05T17:32:05.877Z,29.4
2019-01-05T17:34:05.754Z,29.4
2019-01-05T17:36:05.490Z,29.4
2019-01-05T17:38:05.265Z,29.5
2019-01-05T17:40:06.377Z,29.4
2019-01-05T17:42:07.651Z,29.4
2019-01-05T17:44:05.338Z,29.4
2019-01-05T17:46:05.022Z,29.4
2019-01-05T17:48:08.213Z,29.3
2019-01-05T17:50:05.889Z,29.3
2019-01-05T17:52:05.547Z,29.4
2019-01-05T17:54:05.193Z,29.4
2019-01-05T17:56:05.434Z,29.4
2019-01-05T17:58:05.144Z,29.4
2019-01-05T18:00:10.987Z,29.4
2019-01-05T18:02:05.847Z,29.4
2019-01-05T18:04:05.172Z,29.3
2019-01-05T18:06:06.005Z,29.4
2019-01-05T18:08:05.795Z,29.4
2019-01-05T18:10:08.010Z,29.2
2019-01-05T18:12:07.843Z,29.2
2019-01-05T18:14:05.527Z,29.2
2019-01-05T18:16:05.941Z,29.3
2019-01-05T18:18:05.866Z,29.2
2019-01-05T18:20:08.121Z,29.4
2019-01-05T18:22:05.957Z,29.2
2019-01-05T18:24:05.762Z,29.2
2019-01-05T18:26:07.998Z,29.4
2019-01-05T18:28:10.775Z,29.4
2019-01-05T18:30:05.538Z,29.2
2019-01-05T18:32:05.872Z,29.2
2019-01-05T18:34:05.604Z,29.3
2019-01-05T18:36:07.931Z,29.4
2019-01-05T18:38:05.631Z,29.2
2019-01-05T18:40:05.562Z,29.3
2019-01-05T18:42:05.241Z,29.3
2019-01-05T18:44:05.929Z,29.2
2019-01-05T18:46:05.177Z,29.3
2019-01-05T18:48:07.979Z,29.3
2019-01-05T18:50:05.763Z,29.3
2019-01-05T18:52:05.484Z,29.3
2019-01-05T18:54:05.302Z,29.3
2019-01-05T18:56:08.505Z,29.3
2019-01-05T18:58:05.500Z,29.3
2019-01-05T19:00:08.282Z,29.3
2019-01-05T19:02:08.522Z,29.3
2019-01-05T19:04:10.930Z,29.3
2019-01-05T19:06:06.136Z,29.3
2019-01-05T19:08:07.826Z,29.2
2019-01-05T19:10:06.030Z,29.2
2019-01-05T19:12:09.198Z,29.3
2019-01-05T19:14:06.041Z,29.3
2019-01-05T19:16:05.901Z,29.2
2019-01-05T19:18:05.829Z,29.3
2019-01-05T19:20:05.656Z,29.3
2019-01-05T19:22:05.975Z,29.2
2019-01-05T19:24:05.905Z,29.3
2019-01-05T19:26:05.777Z,29.3
2019-01-05T19:28:05.262Z,29.3
2019-01-05T19:30:05.244Z,29.2
2019-01-05T19:32:07.606Z,29.3
2019-01-05T19:34:05.900Z,29.2
2019-01-05T19:36:05.991Z,29.2
2019-01-05T19:38:06.026Z,29.4
2019-01-05T19:40:08.379Z,29.2
2019-01-05T19:42:05.036Z,29.2
2019-01-05T19:44:05.721Z,29.2
2019-01-05T19:46:07.942Z,29.2
2019-01-05T19:48:05.725Z,29.2
2019-01-05T19:50:05.415Z,29.2
2019-01-05T19:52:07.592Z,29.2
2019-01-05T19:54:05.314Z,29.2
2019-01-05T19:56:10.036Z,29.2
2019-01-05T19:58:05.716Z,29.2
2019-01-05T20:00:05.419Z,29.2
2019-01-05T20:02:05.350Z,29.2
2019-01-05T20:04:05.010Z,29.2
2019-01-05T20:06:05.214Z,29.3
2019-01-05T20:08:07.837Z,29.3
2019-01-05T20:10:05.560Z,29.3
2019-01-05T20:12:08.529Z,29.1
2019-01-05T20:14:05.198Z,29.3
2019-01-05T20:16:05.950Z,29.3
2019-01-05T20:18:05.831Z,29.3
2019-01-05T20:20:05.578Z,29.1
2019-01-05T20:22:05.380Z,29.1
2019-01-05T20:24:05.626Z,29.3
2019-01-05T20:26:08.400Z,29.2
2019-01-05T20:28:05.602Z,29.2
2019-01-05T20:30:05.322Z,29.2
2019-01-05T20:32:05.255Z,29.2
2019-01-05T20:34:08.064Z,29.1
2019-01-05T20:36:05.255Z,29.1
2019-01-05T20:38:05.468Z,29.1
2019-01-05T20:40:05.169Z,29.4
2019-01-05T20:42:05.893Z,29.2
2019-01-05T20:44:05.596Z,29.2
2019-01-05T20:46:05.298Z,29.3
2019-01-05T20:48:05.989Z,29.4
2019-01-05T20:50:05.706Z,29.4
2019-01-05T20:52:08.199Z,29.4
2019-01-05T20:54:05.648Z,29.4
2019-01-05T20:56:05.334Z,29.3
2019-01-05T20:58:05.094Z,29.4
2019-01-05T21:00:05.844Z,29.5
2019-01-05T21:02:05.755Z,29.5
2019-01-05T21:04:05.463Z,29.5
2019-01-05T21:06:05.289Z,29.4
2019-01-05T21:08:09.584Z,29.5
2019-01-05T21:10:05.369Z,29.6
2019-01-05T21:12:08.242Z,29.5
2019-01-05T21:14:05.914Z,29.4
2019-01-05T21:16:05.595Z,29.5
2019-01-05T21:18:08.082Z,29.4
2019-01-05T21:20:06.788Z,29.4
2019-01-05T21:22:05.553Z,29.6
2019-01-05T21:24:07.767Z,29.6
2019-01-05T21:26:05.722Z,29.4
2019-01-05T21:28:05.954Z,29.4
2019-01-05T21:30:05.314Z,29.5
2019-01-05T21:32:06.013Z,29.5
2019-01-05T21:34:05.354Z,29.4
2019-01-05T21:36:05.494Z,29.5
2019-01-05T21:38:05.406Z,29.5
2019-01-05T21:40:05.830Z,29.5
2019-01-05T21:42:06.495Z,29.4
2019-01-05T21:44:05.178Z,29.5
2019-01-05T21:46:05.867Z,29.4
2019-01-05T21:48:05.548Z,29.4
2019-01-05T21:50:05.237Z,29.4
2019-01-05T21:52:06.954Z,29.4
2019-01-05T21:54:06.779Z,29.4
2019-01-05T21:56:16.087Z,29.4
2019-01-05T21:58:05.716Z,29.4
2019-01-05T22:00:05.866Z,29.4
2019-01-05T22:02:08.105Z,29.4
2019-01-05T22:04:05.829Z,29.4
2019-01-05T22:06:10.600Z,29.4
2019-01-05T22:08:04.974Z,29.4
2019-01-05T22:10:07.893Z,29.4
2019-01-05T22:12:05.562Z,29.4
2019-01-05T22:14:05.444Z,29.4
2019-01-05T22:16:08.289Z,29.4
2019-01-05T22:18:07.678Z,29.4
2019-01-05T22:20:05.921Z,29.4
2019-01-05T22:22:05.680Z,29.4
2019-01-05T22:24:05.590Z,29.4
2019-01-05T22:26:15.614Z,29.3
2019-01-05T22:28:07.828Z,29.3
2019-01-05T22:30:05.495Z,29.3
2019-01-05T22:32:05.170Z,29.3
2019-01-05T22:34:05.059Z,29.3
2019-01-05T22:36:08.417Z,29.3
2019-01-05T22:38:06.041Z,29.3
2019-01-05T22:40:10.871Z,29.4
2019-01-05T22:42:05.618Z,29.4
2019-01-05T22:44:05.864Z,29.4
2019-01-05T22:46:05.632Z,29.4
2019-01-05T22:48:07.848Z,29.3
2019-01-05T22:50:08.089Z,29.4
2019-01-05T22:52:05.774Z,29.4
2019-01-05T22:54:08.406Z,29.4
2019-01-05T22:56:07.662Z,29.4
2019-01-05T22:58:06.128Z,29.3
2019-01-05T23:00:05.243Z,29.4
2019-01-05T23:02:05.466Z,29.4
2019-01-05T23:04:07.731Z,29.2
2019-01-05T23:06:06.889Z,29.2
2019-01-05T23:08:05.639Z,29.2
2019-01-05T23:10:05.809Z,29.2
2019-01-05T23:12:08.096Z,29.3
2019-01-05T23:14:08.390Z,29.4
2019-01-05T23:16:10.519Z,29.4
2019-01-05T23:18:08.125Z,29.3
2019-01-05T23:20:05.802Z,29.3
2019-01-05T23:22:05.467Z,29.2
2019-01-05T23:24:05.166Z,29.4
2019-01-05T23:26:05.896Z,29.4
2019-01-05T23:28:05.624Z,29.4
2019-01-05T23:30:05.322Z,29.5
2019-01-05T23:32:05.332Z,29.6
2019-01-05T23:34:07.560Z,29.7
2019-01-05T23:36:05.794Z,29.7
2019-01-05T23:38:05.401Z,29.8
2019-01-05T23:40:05.606Z,29.7
2019-01-05T23:42:05.271Z,29.6
2019-01-05T23:44:08.485Z,29.7
2019-01-05T23:46:05.173Z,29.7
2019-01-05T23:48:05.064Z,29.8
2019-01-05T23:50:06.232Z,29.6
2019-01-05T23:52:05.334Z,29.7
2019-01-05T23:54:07.778Z,29.7
2019-01-05T23:56:05.537Z,29.6
2019-01-05T23:58:05.211Z,29.8
